Terminal Aerodrome Forecast
Issued by NWS

Home | Current Version | Previous Version | Text Only | Print | Product List | Glossary On
Versions: 1 2 3 4 5 6 7 8 9 10 11 12 13 14 15 16 17 18
000
FTUS41 KALY 182346
TAFPSF
TAF
KPSF 182346Z 1900/1924 VRB03KT P6SM SKC
     FM190900 00000KT 4SM BR SKC
     FM191300 20006KT P6SM SKC
     FM191600 21010G18KT P6SM SCT250
     FM192200 23008G15KT P6SM SCT050=

USA.gov is the U.S. government's official web portal to all federal, state and local government web resources and services.